This is the latest recevied weather packets stored in our database for station/object DB0HOL-4. If no packets are shown the sender has not sent any weather packets the latest 10 day(s).
| Time | Temp. | Humidity | Pressure | Rain* | Wind** | Luminosity | Snow |
|---|---|---|---|---|---|---|---|
| 1777496197 | 8.89° C | 50% | 1027.7 hPa | 0 mm | - | 0 W/m² | - |
| 1777494397 | 8.89° C | 49% | 1027.4 hPa | 0 mm | - | 0 W/m² | - |
| 1777492597 | 9.44° C | 49% | 1027.4 hPa | 0 mm | - | 0 W/m² | - |
| 1777490798 | 10° C | 47% | 1027 hPa | 0 mm | - | 17 W/m² | - |
| 1777488997 | 10.56° C | 47% | 1026.7 hPa | 0 mm | - | 164 W/m² | - |
| 1777487197 | 11.11° C | 45% | 1026.4 hPa | 0 mm | - | 407 W/m² | - |
| 1777485398 | 11.67° C | 43% | 1026.4 hPa | 0 mm | - | 806 W/m² | - |
| 1777483597 | 11.67° C | 42% | 1026.4 hPa | 0 mm | - | 157 W/m² | - |
| 1777481771 | 11.67° C | 41% | 1026.4 hPa | 0 mm | - | 252 W/m² | - |
| 1777479972 | 12.22° C | 41% | 1026 hPa | 0 mm | - | 124 W/m² | - |
| 1777478172 | 12.22° C | 40% | 1026 hPa | 0 mm | - | 388 W/m² | - |
| 1777476373 | 12.22° C | 39% | 1026.4 hPa | 0 mm | - | 481 W/m² | - |
| 1777474574 | 12.22° C | 41% | 1026.4 hPa | 0 mm | - | 507 W/m² | - |
| 1777472776 | 12.22° C | 40% | 1026.4 hPa | 0 mm | - | 784 W/m² | - |
| 1777470977 | 12.22° C | 43% | 1026.4 hPa | 0 mm | - | 577 W/m² | - |
| 1777469177 | 12.22° C | 44% | 1026.4 hPa | 0 mm | - | 550 W/m² | - |
| 1777467378 | 11.67° C | 44% | 1026.7 hPa | 0 mm | - | 621 W/m² | - |
| 1777465580 | 11.11° C | 42% | 1026.7 hPa | 0 mm | - | 615 W/m² | - |
| 1777463780 | 11.11° C | 40% | 1026.7 hPa | 0 mm | - | 631 W/m² | - |
| 1777461981 | 10.56° C | 45% | 1026.7 hPa | 0 mm | - | 616 W/m² | - |
| 1777460182 | 10° C | 44% | 1026.7 hPa | 0 mm | - | 682 W/m² | - |
| 1777458383 | 10.56° C | 41% | 1026.7 hPa | 0 mm | - | 646 W/m² | - |
| 1777456583 | 10° C | 49% | 1026.7 hPa | 0 mm | - | 635 W/m² | - |
| 1777454784 | 8.89° C | 56% | 1026.7 hPa | 0 mm | - | 576 W/m² | - |
| 1777452986 | 8.33° C | 60% | 1026.7 hPa | 0 mm | - | 494 W/m² | - |
* Rain latest hour (hover to see other rain measurements)
** Current wind speed in m/s (hover to see current wind gust speed)